Nearby METAR Reports

 

EBAW - Antwerp/Deurne, Belgium
Distance from station: ZZO 9km
Ververst: 24/10/2021 01:20

 Wind van OZO
Wind: OZO 6 km/h
2021/10/23 23:20 EBAW 232320Z AUTO 11003KT //// R11///// R29///// // VV/// 06/05 Q1027
EHWO - Woensdrecht Rnla, Netherlands
Distance from station: NNW 20km
Ververst: 24/10/2021 01:25
Zwaar bewolkt
Zwaar bewolkt
 Wind van ZZO
Wind: ZZO 6 km/h
Temperatuur: 8°C
Dauwpunt: 7°C
Vochtigheid: 93%
Barometer: 1026 hPa
Clouds: Zwaar bewolkt
Visibility: 10 km
Cloud details: Zwaar bewolkt 1402 m
2021/10/23 23:25 EHWO 232325Z AUTO 15003KT 9999 OVC046 08/07 Q1026 BLU
 
EBBR - Brussels Nationa, Belgium
Distance from station: Z 43km
Ververst: 24/10/2021 01:20
Helder
Helder
 Wind van Z
Wind: Z 11 km/h
Temperatuur: 8°C
Gevoelstemp.: 6°C
Dauwpunt: 5°C
Vochtigheid: 82%
Barometer: 1027 hPa
Overzicht: Helder
Visibility: greater than 10 km
2021/10/23 23:20 EBBR 232320Z 18006KT CAVOK 08/05 Q1027 NOSIG
EHGR - Gilze-Rijen Rnla, Netherlands
Distance from station: NO 47km
Ververst: 24/10/2021 01:25
Meestal bewolkt
Meestal bewolkt
 Wind van Z
Wind: Z 6 km/h
Temperatuur: 6°C
Dauwpunt: 5°C
Vochtigheid: 93%
Barometer: 1027 hPa
Clouds: Meestal bewolkt
Visibility: 10 km
Cloud details: Meestal bewolkt 10668 m
2021/10/23 23:25 EHGR 232325Z AUTO 17003KT 9999 BKN350 06/05 Q1027 BLU
 
EBDT - Schaffen, Belgium
Distance from station: OZO 54km
Ververst: 24/10/2021 01:13
Helder
Helder
 Wind van Z
Wind: Z 7 km/h
Temperatuur: 5°C
Gevoelstemp.: 3°C
Dauwpunt: 5°C
Vochtigheid: 100%
Barometer: 1027 hPa
Clouds: Helder
Visibility: 7 km
2021/10/23 23:13 EBDT 232313Z AUTO 17004KT 7000 NCD 05/05 Q1027 WHT
EHFS - Vlissingen, Netherlands
Distance from station: WNW 60km
Ververst: 24/10/2021 00:55
Gedeeltelijk bewolkt
Gedeeltelijk bewolkt
 Wind van ZZO
Wind: ZZO 20 km/h
Temperatuur: 10°C
Gevoelstemp.: 7°C
Dauwpunt: 7°C
Vochtigheid: 82%
Barometer: 1026 hPa
Clouds: Gedeeltelijk bewolkt
Visibility: 10 km
2021/10/23 22:55 EHFS 232255Z AUTO 16011KT 9999 NSC 10/07 Q1026
 
EBBE - Beauvechain (baf, Belgium
Distance from station: ZZO 64km
Ververst: 24/10/2021 00:55
Helder
Helder
 Wind van ZZO
Wind: ZZO 13 km/h
Temperatuur: 8°C
Gevoelstemp.: 6°C
Dauwpunt: 5°C
Vochtigheid: 82%
Barometer: 1027 hPa
Clouds: Helder
Visibility: 10 km
2021/10/23 22:55 EBBE 232255Z AUTO 16007KT 9999 NCD 08/05 Q1027 BLU
EHEH - Eindhoven Rnlafb, Netherlands
Distance from station: ONO 69km
Ververst: 24/10/2021 01:25
Mist, Meestal bewolkt
Mist, Meestal bewolkt
 Wind van ZO
Wind: ZO 7 km/h
Temperatuur: 5°C
Gevoelstemp.: 3°C
Dauwpunt: 5°C
Vochtigheid: 100%
Barometer: 1027 hPa
Overzicht: Mist
Clouds: Meestal bewolkt
Visibility: 5 km
Cloud details: Meestal bewolkt 10668 m
2021/10/23 23:25 EHEH 232325Z AUTO 14004KT 120V240 5000 BR BKN350 05/05 Q1027 WHT
 
EBBL - Kleine-Brogel(Ba, Belgium
Distance from station: O 74km
Ververst: 24/10/2021 01:21
Helder
Helder
 Wind van varies
Wind: varies 2 km/h
Temperatuur: 3°C
Dauwpunt: 3°C
Vochtigheid: 100%
Barometer: 1027 hPa
Clouds: Helder
Visibility: 5 km
2021/10/23 23:21 EBBL 232321Z AUTO VRB01KT 4600 NCD 03/03 Q1027 GRN
EHRD - Rotterdam Airpor, Netherlands
Distance from station: N 75km
Ververst: 24/10/2021 01:25
Gedeeltelijk bewolkt
Gedeeltelijk bewolkt
 Wind van ZZO
Wind: ZZO 11 km/h
Temperatuur: 9°C
Gevoelstemp.: 7°C
Dauwpunt: 7°C
Vochtigheid: 87%
Barometer: 1026 hPa
Clouds: Gedeeltelijk bewolkt
Visibility: 10 km
2021/10/23 23:25 EHRD 232325Z AUTO 16006KT 9999 NSC 09/07 Q1026 NOSIG
 
EHSC - Goeree Le Sea, Netherlands
Distance from station: NW 89km
Ververst: 24/10/2021 01:25

 Wind van ZZW
Wind: ZZW 35 km/h
Temperatuur: 13°C
Dauwpunt: 7°C
Vochtigheid: 67%
Barometer: 1025 hPa
Visibility: 10 km
2021/10/23 23:25 EHSC 232325Z AUTO 20019KT 9999 ///////// 13/07 Q1025 W15/H8
EBCI - Charleroi/Gossel, Belgium
Distance from station: Z 90km
Ververst: 24/10/2021 01:20
Helder
Helder
 Wind van ZO
Wind: ZO 7 km/h
Temperatuur: 6°C
Gevoelstemp.: 4°C
Dauwpunt: 5°C
Vochtigheid: 93%
Barometer: 1027 hPa
Overzicht: Helder
Visibility: greater than 10 km
2021/10/23 23:20 EBCI 232320Z 13004KT CAVOK 06/05 Q1027 NOSIG
 
EBCV - Chievres Ab, Belgium
Distance from station: ZZW 90km
Ververst: 24/10/2021 00:55
Helder
Helder
 Wind van ZO
Wind: ZO 11 km/h
Temperatuur: 7°C
Gevoelstemp.: 5°C
Dauwpunt: 4°C
Vochtigheid: 81%
Barometer: 1026 hPa
Clouds: Helder
Visibility: 10 km
2021/10/23 22:55 EBCV 232255Z AUTO 14006KT 9999 NCD 07/04 Q1026 BLU
EHVK - Volkel Rnlafb, Netherlands
Distance from station: ONO 97km
Ververst: 24/10/2021 01:25
Mist, Few clouds
Mist, Few clouds
 Wind van OZO
Wind: OZO 4 km/h
Temperatuur: 5°C
Dauwpunt: 5°C
Vochtigheid: 100%
Barometer: 1027 hPa
Overzicht: Mist
Clouds: Few Clouds
Visibility: 8 km
Cloud details: Few Clouds 10363 m
2021/10/23 23:25 EHVK 232325Z AUTO 12002KT 8000 BR FEW340 05/05 Q1027 BLU
 
EBLG - Bierset/Liege (c, Belgium
Distance from station: ZO 102km
Ververst: 24/10/2021 01:20
Helder
Helder
 Wind van ZZO
Wind: ZZO 9 km/h
Temperatuur: 7°C
Gevoelstemp.: 6°C
Dauwpunt: 5°C
Vochtigheid: 87%
Barometer: 1027 hPa
Overzicht: Helder
Visibility: greater than 10 km
2021/10/23 23:20 EBLG 232320Z 15005KT 120V200 CAVOK 07/05 Q1027 NOSIG
EHBK - Zuid-Limburg/Bee, Netherlands
Distance from station: OZO 102km
Ververst: 24/10/2021 01:25
Gedeeltelijk bewolkt
Gedeeltelijk bewolkt
 Wind van Z
Wind: Z 9 km/h
Temperatuur: 6°C
Gevoelstemp.: 4°C
Dauwpunt: 4°C
Vochtigheid: 87%
Barometer: 1027 hPa
Clouds: Gedeeltelijk bewolkt
Visibility: 10 km
2021/10/23 23:25 EHBK 232325Z AUTO 18005KT 9999 NSC 06/04 Q1027
 
EBOS - Oostende Airport, Belgium
Distance from station: W 108km
Ververst: 24/10/2021 01:20
Helder
Helder
 Wind van ZZO
Wind: ZZO 11 km/h
Temperatuur: 6°C
Gevoelstemp.: 4°C
Dauwpunt: 4°C
Vochtigheid: 87%
Barometer: 1026 hPa
Overzicht: Helder
Visibility: greater than 10 km
2021/10/23 23:20 EBOS 232320Z 15006KT CAVOK 06/04 Q1026 NOSIG
EHSA - Euro Platform, Netherlands
Distance from station: NW 112km
Ververst: 24/10/2021 01:25

 Wind van Z
Wind: Z 37 km/h
Temperatuur: 14°C
Dauwpunt: 8°C
Vochtigheid: 67%
Barometer: 1025 hPa
Visibility: 10 km
2021/10/23 23:25 EHSA 232325Z AUTO 18020KT 9999 ///////// 14/08 Q1025 W15/H11
 
EHAM - Amsterdam/Schiph, Netherlands
Distance from station: NNO 118km
Ververst: 24/10/2021 01:25
Gedeeltelijk bewolkt
Gedeeltelijk bewolkt
 Wind van Z
Wind: Z 7 km/h
Temperatuur: 8°C
Gevoelstemp.: 7°C
Dauwpunt: 7°C
Vochtigheid: 93%
Barometer: 1026 hPa
Clouds: Gedeeltelijk bewolkt
Visibility: 10 km
Cloud details: Gedeeltelijk bewolkt 1463 m
2021/10/23 23:25 EHAM 232325Z 18004KT 120V250 9999 SCT048 08/07 Q1026 NOSIG
ETNG - Geilenkirchen(Na, Germany
Distance from station: OZO 118km
Ververst: 22/10/2021 19:50
NOT Current
Lichte regen, Showers, Meestal bewolkt
Lichte regen, Showers, Meestal bewolkt
 Wind van WNW
Wind: WNW 20 km/h
Temperatuur: 10°C
Gevoelstemp.: 7°C
Dauwpunt: 7°C
Vochtigheid: 82%
Barometer: 1021 hPa
Overzicht: Lichte regen, Showers
Clouds: Meestal bewolkt
Visibility: 10 km
Cloud details: Gedeeltelijk bewolkt 579 m
Meestal bewolkt 914 m
2021/10/22 17:50 ETNG 221750Z 30011KT 9999 -SHRA SCT019TCU BKN030 10/07 Q1021